createdAt,value
2023-03-03T00:00:46.278Z,28.25
2023-03-03T00:01:47.922Z,30.50
2023-03-03T00:02:51.962Z,31.25
2023-03-03T00:03:53.631Z,34.00
2023-03-03T00:04:56.238Z,27.75
2023-03-03T00:05:57.906Z,32.25
2023-03-03T00:07:00.514Z,27.25
2023-03-03T00:08:02.335Z,28.50
2023-03-03T00:09:04.997Z,30.25
2023-03-03T00:10:08.063Z,34.75
2023-03-03T00:11:10.785Z,33.75
2023-03-03T00:12:20.972Z,33.75
2023-03-03T00:13:24.422Z,32.25
2023-03-03T00:14:28.455Z,32.00
2023-03-03T00:15:31.062Z,30.25
2023-03-03T00:16:35.547Z,32.75
2023-03-03T00:17:38.152Z,32.25
2023-03-03T00:18:43.279Z,33.50
2023-03-03T00:19:47.365Z,32.50
2023-03-03T00:20:50.015Z,30.50
2023-03-03T00:21:52.939Z,31.00
2023-03-03T00:22:54.756Z,32.25
2023-03-03T00:24:04.274Z,29.00
2023-03-03T00:25:25.624Z,30.00
2023-03-03T00:26:31.057Z,33.25
2023-03-03T00:27:36.118Z,27.50
2023-03-03T00:28:43.536Z,28.50
2023-03-03T00:29:48.182Z,34.00
2023-03-03T00:30:50.281Z,32.25
2023-03-03T00:31:53.028Z,30.00
2023-03-03T00:32:55.551Z,30.75
2023-03-03T00:34:11.397Z,34.25
2023-03-03T00:35:23.766Z,33.00
2023-03-03T00:39:41.029Z,30.50
2023-03-03T00:40:42.737Z,31.00
2023-03-03T00:41:45.267Z,29.25
2023-03-03T00:42:48.974Z,32.75
2023-03-03T00:43:51.689Z,36.75
2023-03-03T00:44:56.948Z,30.50
2023-03-03T00:45:59.513Z,29.00
2023-03-03T00:47:03.091Z,38.50
2023-03-03T00:48:21.194Z,32.50
2023-03-03T00:49:26.010Z,35.75
2023-03-03T00:50:33.097Z,36.75
2023-03-03T00:51:35.675Z,36.50
2023-03-03T00:52:39.305Z,37.50
2023-03-03T00:53:41.817Z,39.25
2023-03-03T00:54:43.416Z,33.75
2023-03-03T00:55:46.529Z,32.75
2023-03-03T00:56:48.097Z,31.25
2023-03-03T00:57:50.598Z,42.00
2023-03-03T00:58:52.229Z,36.50
2023-03-03T00:59:54.768Z,33.00
2023-03-03T01:00:56.570Z,36.50
2023-03-03T01:01:59.256Z,39.75
2023-03-03T01:03:02.952Z,36.75
2023-03-03T01:04:05.709Z,33.00
2023-03-03T01:05:08.963Z,33.00
2023-03-03T01:06:11.992Z,34.00
2023-03-03T01:07:13.512Z,36.25
2023-03-03T01:08:16.003Z,35.25
2023-03-03T01:09:17.593Z,33.25
2023-03-03T01:10:20.107Z,36.00
2023-03-03T01:11:22.991Z,36.50
2023-03-03T01:12:25.478Z,29.75
2023-03-03T01:13:28.875Z,32.50
2023-03-03T01:14:31.440Z,35.00
2023-03-03T01:15:32.986Z,37.00
2023-03-03T01:16:35.467Z,30.50
2023-03-03T01:17:37.037Z,34.00
2023-03-03T01:18:40.216Z,34.50
2023-03-03T01:19:41.759Z,35.75
2023-03-03T01:20:45.590Z,38.75
2023-03-03T01:21:47.187Z,41.75
2023-03-03T01:22:49.673Z,41.25
2023-03-03T01:23:51.238Z,40.75
2023-03-03T01:24:53.825Z,43.00
2023-03-03T01:25:55.359Z,42.00
2023-03-03T01:26:57.847Z,47.75
2023-03-03T01:27:59.429Z,39.00
2023-03-03T01:29:01.886Z,38.25
2023-03-03T01:30:03.914Z,38.00
2023-03-03T01:31:06.476Z,33.00
2023-03-03T01:32:08.107Z,33.75
2023-03-03T01:33:10.633Z,33.00
2023-03-03T01:34:12.155Z,40.25
2023-03-03T01:35:14.774Z,39.75
2023-03-03T01:36:22.577Z,39.75
2023-03-03T01:37:25.091Z,40.00
2023-03-03T01:38:26.605Z,40.75
2023-03-03T01:39:29.099Z,35.25
2023-03-03T01:40:31.898Z,33.00
2023-03-03T01:41:33.572Z,34.00
2023-03-03T01:42:36.132Z,38.00
2023-03-03T01:43:43.208Z,35.50
2023-03-03T01:44:45.859Z,32.75
2023-03-03T01:46:20.604Z,37.00
2023-03-03T01:47:23.200Z,31.00
2023-03-03T01:48:25.755Z,35.50
2023-03-03T01:49:29.588Z,34.75
2023-03-03T01:50:41.023Z,31.50
2023-03-03T01:51:48.295Z,32.00
2023-03-03T01:52:49.832Z,34.50
2023-03-03T01:53:53.750Z,36.25
2023-03-03T01:54:57.511Z,29.25
2023-03-03T01:56:00.000Z,32.25
2023-03-03T01:57:02.910Z,31.25
2023-03-03T01:58:07.083Z,30.00
2023-03-03T01:59:10.495Z,34.50
2023-03-03T02:00:13.889Z,38.25
2023-03-03T02:01:17.634Z,37.00
2023-03-03T02:02:20.102Z,37.50
2023-03-03T02:03:22.134Z,48.00
2023-03-03T02:04:26.346Z,42.50
2023-03-03T02:05:27.857Z,41.00
2023-03-03T02:06:32.202Z,46.00
2023-03-03T02:07:35.147Z,45.75
2023-03-03T02:08:40.269Z,39.50
2023-03-03T02:09:46.476Z,49.00
2023-03-03T02:10:48.938Z,43.50
2023-03-03T02:11:51.146Z,42.25
2023-03-03T02:12:54.790Z,38.50
2023-03-03T02:13:56.298Z,39.00
2023-03-03T02:14:58.796Z,42.00
2023-03-03T02:16:00.851Z,36.25
2023-03-03T02:17:03.329Z,38.50
2023-03-03T02:18:05.984Z,40.75
2023-03-03T02:19:11.696Z,36.25
2023-03-03T02:20:15.352Z,36.50
2023-03-03T02:21:19.166Z,41.75
2023-03-03T02:22:22.668Z,37.00
2023-03-03T02:23:28.586Z,38.25
2023-03-03T02:24:33.429Z,38.00
2023-03-03T02:25:40.435Z,39.25
2023-03-03T02:26:43.292Z,36.25
2023-03-03T02:27:45.782Z,36.75
2023-03-03T02:28:47.335Z,36.00
2023-03-03T02:29:49.947Z,38.75
2023-03-03T02:30:54.419Z,37.25
2023-03-03T02:31:56.927Z,36.50
2023-03-03T02:32:58.521Z,33.75
2023-03-03T02:34:01.001Z,31.75
2023-03-03T02:35:17.474Z,31.00
2023-03-03T02:36:20.944Z,31.00
2023-03-03T02:37:22.565Z,32.25
2023-03-03T02:38:26.751Z,30.75
2023-03-03T02:39:30.447Z,39.50
2023-03-03T02:40:34.436Z,32.00
2023-03-03T02:41:38.510Z,35.75
2023-03-03T02:42:42.326Z,37.50
2023-03-03T02:43:47.048Z,31.75
2023-03-03T02:44:49.614Z,29.50
2023-03-03T02:45:51.319Z,33.25
2023-03-03T02:46:54.602Z,27.25
2023-03-03T02:47:56.162Z,32.00
2023-03-03T02:48:58.680Z,30.75
2023-03-03T02:50:00.272Z,35.75
2023-03-03T02:51:02.751Z,33.25
2023-03-03T02:52:05.627Z,30.00
2023-03-03T02:53:08.102Z,33.75
2023-03-03T02:54:10.402Z,32.00
2023-03-03T02:55:12.880Z,35.25
2023-03-03T02:56:14.414Z,34.25
2023-03-03T02:57:16.912Z,37.25
2023-03-03T02:58:19.760Z,30.75
2023-03-03T02:59:22.239Z,35.25
2023-03-03T03:00:23.739Z,33.50
2023-03-03T03:01:26.314Z,31.75
2023-03-03T03:02:27.878Z,34.25
2023-03-03T03:03:30.364Z,35.75
2023-03-03T03:04:31.938Z,31.00
2023-03-03T03:05:34.453Z,33.25
2023-03-03T03:06:36.081Z,36.50
2023-03-03T03:07:38.553Z,32.25
2023-03-03T03:08:40.064Z,32.75
2023-03-03T03:09:42.734Z,32.00
2023-03-03T03:10:44.582Z,35.25
2023-03-03T03:11:47.065Z,33.50
2023-03-03T03:12:48.582Z,37.75
2023-03-03T03:13:52.823Z,32.25
2023-03-03T03:14:54.326Z,39.25
2023-03-03T03:15:56.805Z,33.00
2023-03-03T03:16:58.399Z,30.75
2023-03-03T03:18:00.974Z,33.25
2023-03-03T03:19:03.072Z,31.75
2023-03-03T03:20:06.296Z,35.50
2023-03-03T03:21:08.960Z,29.25
2023-03-03T03:22:11.464Z,31.50
2023-03-03T03:23:13.007Z,37.25
2023-03-03T03:24:15.502Z,35.75
2023-03-03T03:25:17.012Z,32.75
2023-03-03T03:26:20.968Z,32.25
2023-03-03T03:27:23.376Z,37.25
2023-03-03T03:28:25.883Z,34.25
2023-03-03T03:29:28.761Z,33.50
2023-03-03T03:30:31.337Z,34.00
2023-03-03T03:31:33.842Z,34.75
2023-03-03T03:32:35.357Z,33.50
2023-03-03T03:33:37.867Z,35.50
2023-03-03T03:34:39.389Z,34.25
2023-03-03T03:35:45.494Z,33.50
2023-03-03T03:36:47.056Z,37.25
2023-03-03T03:37:49.523Z,32.25
2023-03-03T03:38:52.260Z,31.75
2023-03-03T03:39:54.973Z,30.75
2023-03-03T03:40:56.665Z,25.50
2023-03-03T03:41:59.188Z,33.00
2023-03-03T03:43:00.704Z,35.75
2023-03-03T03:44:03.163Z,35.25
2023-03-03T03:45:07.524Z,35.00
2023-03-03T03:46:10.174Z,35.50
2023-03-03T03:47:11.721Z,35.75
2023-03-03T03:48:14.208Z,31.00
2023-03-03T03:49:15.724Z,32.25
2023-03-03T03:50:18.374Z,35.25
2023-03-03T03:51:19.931Z,28.50
2023-03-03T03:52:22.403Z,32.25
2023-03-03T03:53:23.920Z,32.50
2023-03-03T03:54:26.500Z,27.25
2023-03-03T03:55:28.524Z,31.25
2023-03-03T03:56:31.002Z,31.00
2023-03-03T03:57:32.512Z,31.75
2023-03-03T03:58:35.017Z,30.75
2023-03-03T03:59:36.529Z,33.00
2023-03-03T04:00:42.841Z,31.00
2023-03-03T04:01:44.444Z,35.75
2023-03-03T04:02:46.970Z,31.50
2023-03-03T04:03:49.013Z,35.25
2023-03-03T04:04:51.514Z,33.50
2023-03-03T04:05:53.478Z,30.50
2023-03-03T04:06:55.990Z,30.50
2023-03-03T04:07:57.523Z,31.75
2023-03-03T04:09:00.040Z,35.00
2023-03-03T04:10:01.538Z,30.50
2023-03-03T04:11:04.001Z,33.50
2023-03-03T04:12:05.800Z,35.00
2023-03-03T04:13:08.284Z,32.50
2023-03-03T04:14:09.788Z,31.50
2023-03-03T04:15:13.527Z,29.25
2023-03-03T04:16:16.375Z,29.75
2023-03-03T04:17:18.851Z,37.00
2023-03-03T04:18:20.349Z,30.50
2023-03-03T04:19:22.823Z,29.50
2023-03-03T04:20:24.333Z,28.50
2023-03-03T04:21:27.799Z,31.25
2023-03-03T04:22:30.056Z,29.50
2023-03-03T04:23:32.525Z,27.50
2023-03-03T04:24:34.063Z,34.00
2023-03-03T04:25:36.530Z,32.50
2023-03-03T04:26:38.039Z,38.25
2023-03-03T04:27:40.504Z,33.00
2023-03-03T04:28:42.033Z,41.00
2023-03-03T04:29:44.496Z,34.50
2023-03-03T04:30:46.092Z,35.50
2023-03-03T04:31:49.908Z,37.00
2023-03-03T04:32:53.107Z,37.75
2023-03-03T04:33:55.571Z,32.25
2023-03-03T04:35:07.201Z,35.75
2023-03-03T04:36:10.784Z,32.25
2023-03-03T04:37:12.324Z,36.25
2023-03-03T04:38:14.781Z,33.25
2023-03-03T04:39:16.301Z,36.50
2023-03-03T04:40:18.938Z,34.75
2023-03-03T04:41:20.445Z,37.75
2023-03-03T04:42:22.912Z,31.75
2023-03-03T04:43:24.426Z,41.75
2023-03-03T04:44:26.893Z,31.75
2023-03-03T04:45:28.402Z,30.75
2023-03-03T04:46:30.893Z,31.75
2023-03-03T04:47:33.780Z,35.25
2023-03-03T04:48:36.305Z,36.00
2023-03-03T04:49:38.397Z,35.50
2023-03-03T04:50:40.868Z,37.00
2023-03-03T04:51:42.378Z,33.75
2023-03-03T04:52:44.860Z,40.50
2023-03-03T04:53:46.400Z,31.25
2023-03-03T04:54:48.862Z,34.00
2023-03-03T04:55:50.833Z,36.50
2023-03-03T04:56:53.299Z,32.50
2023-03-03T04:57:54.807Z,39.75
2023-03-03T04:58:57.270Z,32.25
2023-03-03T04:59:58.828Z,38.75
2023-03-03T05:01:01.312Z,35.50
2023-03-03T05:02:04.460Z,38.00
2023-03-03T05:03:08.308Z,31.75
2023-03-03T05:04:09.970Z,39.00
2023-03-03T05:05:13.635Z,35.25
2023-03-03T05:06:18.654Z,42.50
2023-03-03T05:07:20.837Z,35.00
2023-03-03T05:08:23.456Z,36.75
2023-03-03T05:09:25.021Z,45.00
2023-03-03T05:10:27.611Z,40.50
2023-03-03T05:11:29.127Z,34.75
2023-03-03T05:12:31.583Z,40.50
2023-03-03T05:13:33.088Z,36.25
2023-03-03T05:14:35.545Z,39.50
2023-03-03T05:15:37.241Z,43.50
2023-03-03T05:16:39.708Z,38.00
2023-03-03T05:17:41.229Z,35.50
2023-03-03T05:18:45.486Z,38.25
2023-03-03T05:19:47.022Z,41.50
2023-03-03T05:20:49.526Z,38.50
2023-03-03T05:21:51.046Z,41.00
2023-03-03T05:22:53.532Z,44.25
2023-03-03T05:23:55.030Z,33.25
2023-03-03T05:24:57.565Z,42.75
2023-03-03T05:25:59.145Z,37.25
2023-03-03T05:27:01.684Z,35.00
2023-03-03T05:28:04.576Z,38.00
2023-03-03T05:29:07.218Z,46.50
2023-03-03T05:30:09.914Z,37.25
2023-03-03T05:31:12.647Z,40.50
2023-03-03T05:32:14.177Z,42.75
2023-03-03T05:33:17.234Z,38.25
2023-03-03T05:34:20.081Z,41.00
2023-03-03T05:35:23.294Z,37.50
2023-03-03T05:36:24.848Z,37.50
2023-03-03T05:37:27.373Z,39.75
2023-03-03T05:38:28.893Z,39.50
2023-03-03T05:39:31.355Z,34.25
2023-03-03T05:40:32.863Z,39.50
2023-03-03T05:41:36.810Z,38.50
2023-03-03T05:42:38.386Z,42.25
2023-03-03T05:43:40.884Z,41.50
2023-03-03T05:44:42.627Z,39.50
2023-03-03T05:45:45.086Z,40.00
2023-03-03T05:46:46.648Z,36.75
2023-03-03T05:47:49.344Z,36.00
2023-03-03T05:48:50.847Z,41.00
2023-03-03T05:49:54.689Z,33.00
2023-03-03T05:50:59.074Z,39.50
2023-03-03T05:52:00.616Z,43.00
2023-03-03T05:53:03.087Z,36.75
2023-03-03T05:54:04.728Z,44.25
2023-03-03T05:55:08.087Z,41.50
2023-03-03T05:56:09.580Z,36.50
2023-03-03T05:57:12.079Z,35.50
2023-03-03T05:58:13.620Z,37.25
2023-03-03T05:59:16.125Z,39.50
2023-03-03T06:00:18.571Z,38.00
2023-03-03T06:01:22.099Z,33.25
2023-03-03T06:02:23.617Z,37.25
2023-03-03T06:03:26.073Z,39.75
2023-03-03T06:04:27.649Z,40.75
2023-03-03T06:05:31.475Z,34.25
2023-03-03T06:06:33.162Z,33.75
2023-03-03T06:07:35.732Z,34.25
2023-03-03T06:08:37.234Z,36.00
2023-03-03T06:09:39.819Z,38.00
2023-03-03T06:10:41.357Z,34.25
2023-03-03T06:11:43.827Z,38.75
2023-03-03T06:12:45.362Z,36.25
2023-03-03T06:13:47.829Z,35.75
2023-03-03T06:14:49.386Z,40.50
2023-03-03T06:15:51.848Z,36.75
2023-03-03T06:16:53.364Z,31.25
2023-03-03T06:17:55.837Z,33.75
2023-03-03T06:18:57.422Z,31.50
2023-03-03T06:19:59.902Z,40.50
2023-03-03T06:21:02.903Z,33.75
2023-03-03T06:22:05.394Z,45.00
2023-03-03T06:23:06.921Z,49.00
2023-03-03T06:24:09.479Z,45.00
2023-03-03T06:25:11.001Z,45.00
2023-03-03T06:26:13.466Z,43.50
2023-03-03T06:27:14.994Z,44.75
2023-03-03T06:28:17.457Z,49.50
2023-03-03T06:29:19.074Z,44.50
2023-03-03T06:30:21.766Z,40.25
2023-03-03T06:31:23.306Z,34.25
2023-03-03T06:32:25.823Z,38.75
2023-03-03T06:33:28.305Z,39.25
2023-03-03T06:34:29.811Z,36.25
2023-03-03T06:35:32.318Z,43.50
2023-03-03T06:36:35.181Z,35.25
2023-03-03T06:37:37.678Z,40.75
2023-03-03T06:38:39.213Z,39.25
2023-03-03T06:39:41.714Z,36.25
2023-03-03T06:40:43.242Z,40.50
2023-03-03T06:41:45.713Z,40.25
2023-03-03T06:42:47.221Z,42.25
2023-03-03T06:43:49.694Z,40.50
2023-03-03T06:44:51.206Z,41.50
2023-03-03T06:45:53.784Z,40.25
2023-03-03T06:46:57.235Z,45.50
2023-03-03T06:47:59.710Z,47.00
2023-03-03T06:49:01.258Z,41.25
2023-03-03T06:50:03.724Z,40.00
2023-03-03T06:51:14.976Z,37.25
2023-03-03T06:52:21.410Z,38.50
2023-03-03T06:53:22.930Z,33.75
2023-03-03T06:54:30.709Z,38.75
2023-03-03T06:55:33.548Z,37.50
2023-03-03T06:56:35.801Z,28.75
2023-03-03T06:57:38.315Z,35.25
2023-03-03T06:58:39.947Z,39.50
2023-03-03T06:59:42.411Z,36.50
2023-03-03T07:00:44.428Z,37.00
2023-03-03T07:01:48.013Z,32.25
2023-03-03T07:02:51.482Z,38.50
2023-03-03T07:03:53.995Z,36.75
2023-03-03T07:04:55.658Z,31.75
2023-03-03T07:05:58.121Z,35.25
2023-03-03T07:07:00.669Z,36.75
2023-03-03T07:08:04.953Z,33.00
2023-03-03T07:09:09.040Z,38.00
2023-03-03T07:10:19.450Z,40.25
2023-03-03T07:11:22.133Z,35.75
2023-03-03T07:12:25.479Z,36.25
2023-03-03T07:13:27.827Z,33.50
2023-03-03T07:14:30.734Z,35.25
2023-03-03T07:15:34.209Z,33.25
2023-03-03T07:16:36.756Z,35.25
2023-03-03T07:17:38.365Z,36.00
2023-03-03T07:18:42.252Z,36.75
2023-03-03T07:19:44.026Z,34.25
2023-03-03T07:20:46.501Z,36.00
2023-03-03T07:21:48.993Z,32.25
2023-03-03T07:22:51.526Z,37.75
2023-03-03T07:23:54.394Z,33.50
2023-03-03T07:24:58.998Z,32.50
2023-03-03T07:26:00.505Z,31.00
2023-03-03T07:27:10.325Z,36.75
2023-03-03T07:28:15.836Z,35.00
2023-03-03T07:29:22.221Z,34.50
2023-03-03T07:30:28.277Z,36.00
2023-03-03T07:31:31.557Z,37.50
2023-03-03T07:32:38.450Z,35.25
2023-03-03T07:33:43.413Z,37.75
2023-03-03T07:34:46.263Z,33.50
2023-03-03T07:35:48.855Z,33.00
2023-03-03T07:36:51.755Z,32.75
2023-03-03T07:37:53.429Z,31.50
2023-03-03T07:38:59.096Z,38.50
2023-03-03T07:40:00.752Z,39.00
2023-03-03T07:41:04.125Z,34.00
2023-03-03T07:42:20.187Z,34.00
2023-03-03T07:43:38.011Z,36.00
2023-03-03T07:44:39.952Z,38.75
2023-03-03T07:45:43.079Z,34.00
2023-03-03T07:46:45.941Z,30.75
2023-03-03T07:47:47.617Z,34.00
2023-03-03T07:48:50.204Z,40.50
2023-03-03T07:49:52.403Z,35.75
2023-03-03T07:50:55.107Z,37.00
2023-03-03T07:51:58.348Z,37.00
2023-03-03T07:53:01.349Z,33.25
2023-03-03T07:54:15.862Z,42.75
2023-03-03T07:55:24.974Z,38.00
2023-03-03T07:56:30.073Z,36.25
2023-03-03T07:57:35.494Z,34.75
2023-03-03T07:58:39.296Z,30.00
2023-03-03T07:59:51.028Z,35.00
2023-03-03T08:01:29.082Z,32.25
2023-03-03T08:02:40.062Z,35.75
2023-03-03T08:03:42.456Z,36.00
2023-03-03T08:04:50.642Z,34.50
2023-03-03T08:05:52.587Z,35.75
2023-03-03T08:06:55.982Z,36.00
2023-03-03T08:08:03.164Z,33.00
2023-03-03T08:09:41.594Z,36.50
2023-03-03T08:10:45.515Z,32.50
2023-03-03T08:11:49.337Z,34.75
2023-03-03T08:12:51.805Z,35.25
2023-03-03T08:13:54.432Z,33.50
2023-03-03T08:14:55.989Z,34.50
2023-03-03T08:16:00.977Z,33.50
2023-03-03T08:17:02.624Z,36.00
2023-03-03T08:18:16.672Z,34.50
2023-03-03T08:19:18.210Z,44.50
2023-03-03T08:20:46.104Z,39.25
2023-03-03T08:21:48.594Z,40.50
2023-03-03T08:22:50.103Z,41.75
2023-03-03T08:23:53.610Z,36.50
2023-03-03T08:24:56.543Z,37.50
2023-03-03T08:25:59.050Z,31.00
2023-03-03T08:27:00.559Z,32.00
2023-03-03T08:28:03.028Z,33.75
2023-03-03T08:29:05.514Z,33.50
2023-03-03T08:30:08.170Z,32.75
2023-03-03T08:31:20.218Z,37.50
2023-03-03T08:32:26.719Z,31.75
2023-03-03T08:33:29.288Z,38.75
2023-03-03T08:34:30.796Z,36.00
2023-03-03T08:35:34.393Z,36.00
2023-03-03T08:36:36.912Z,33.75
2023-03-03T08:37:38.425Z,35.50
2023-03-03T08:38:41.071Z,37.00
2023-03-03T08:39:42.918Z,37.75
2023-03-03T08:40:49.645Z,36.75
2023-03-03T08:41:51.158Z,37.50
2023-03-03T08:42:54.303Z,40.00
2023-03-03T08:43:56.835Z,34.50
2023-03-03T08:44:58.377Z,33.25
2023-03-03T08:46:02.297Z,32.00
2023-03-03T08:47:04.016Z,36.25
2023-03-03T08:48:07.567Z,34.25
2023-03-03T08:49:09.126Z,36.00
2023-03-03T08:50:11.885Z,34.50
2023-03-03T08:51:13.395Z,34.25
2023-03-03T08:52:15.865Z,32.25
2023-03-03T08:53:18.998Z,37.00
2023-03-03T08:54:20.530Z,36.00
2023-03-03T08:55:23.045Z,35.00
2023-03-03T08:56:27.127Z,35.25
2023-03-03T08:57:28.648Z,33.25
2023-03-03T08:58:35.486Z,33.00
2023-03-03T08:59:39.011Z,33.75
2023-03-03T09:00:41.951Z,34.00
2023-03-03T09:01:45.407Z,35.00
2023-03-03T09:02:48.156Z,30.50
2023-03-03T09:03:50.639Z,38.25
2023-03-03T09:04:52.282Z,33.50
2023-03-03T09:05:54.979Z,31.25
2023-03-03T09:06:57.574Z,34.75
2023-03-03T09:08:00.658Z,35.75
2023-03-03T09:09:02.764Z,32.25
2023-03-03T09:10:06.068Z,30.25
2023-03-03T09:11:11.409Z,33.75
2023-03-03T09:12:16.125Z,32.50
2023-03-03T09:13:20.076Z,30.75
2023-03-03T09:14:21.604Z,31.00
2023-03-03T09:15:25.047Z,30.50
2023-03-03T09:16:28.227Z,29.25
2023-03-03T09:17:31.185Z,35.25
2023-03-03T09:18:36.521Z,34.75
2023-03-03T09:19:38.057Z,30.75
2023-03-03T09:20:40.935Z,33.50
2023-03-03T09:21:42.470Z,30.75
2023-03-03T09:22:44.939Z,31.25
2023-03-03T09:23:49.897Z,30.00
2023-03-03T09:24:54.805Z,35.00
2023-03-03T09:25:56.468Z,32.25
2023-03-03T09:26:59.494Z,31.50
2023-03-03T09:28:02.479Z,31.75
2023-03-03T09:29:31.638Z,31.00
2023-03-03T09:30:38.595Z,29.50
2023-03-03T09:31:43.483Z,34.25
2023-03-03T09:32:45.820Z,34.25
2023-03-03T09:33:49.709Z,28.75
2023-03-03T09:34:52.024Z,31.50
2023-03-03T09:35:55.403Z,31.75
2023-03-03T09:36:57.357Z,31.25
2023-03-03T09:37:59.864Z,27.50
2023-03-03T09:39:01.476Z,31.25
2023-03-03T09:40:14.987Z,30.50
2023-03-03T09:41:54.338Z,28.50
2023-03-03T09:43:00.600Z,28.75
2023-03-03T09:44:14.034Z,30.50
2023-03-03T09:45:35.856Z,29.00
2023-03-03T09:46:40.207Z,30.00
2023-03-03T09:47:52.013Z,29.25
2023-03-03T09:48:59.279Z,28.75
2023-03-03T09:50:06.485Z,31.00
2023-03-03T09:51:23.127Z,31.50
2023-03-03T09:52:31.894Z,30.75
2023-03-03T09:53:44.621Z,30.25
2023-03-03T09:54:55.582Z,34.75
2023-03-03T09:56:00.266Z,37.00
2023-03-03T09:57:05.550Z,33.25
2023-03-03T09:58:16.645Z,31.00
2023-03-03T09:59:27.057Z,30.25
2023-03-03T10:00:36.397Z,31.75
2023-03-03T10:01:48.387Z,30.00
2023-03-03T10:03:03.472Z,31.25
2023-03-03T10:04:41.685Z,27.50
2023-03-03T10:05:48.744Z,28.00
2023-03-03T10:06:55.658Z,30.75
2023-03-03T10:08:03.408Z,27.25
2023-03-03T10:09:14.438Z,25.50
2023-03-03T10:10:41.597Z,26.25
2023-03-03T10:11:46.610Z,30.75
2023-03-03T10:12:53.720Z,32.25
2023-03-03T10:14:16.467Z,31.50
2023-03-03T10:15:41.010Z,28.00
2023-03-03T10:17:01.908Z,28.25
2023-03-03T10:18:12.223Z,28.50
2023-03-03T10:19:21.272Z,28.75
2023-03-03T10:20:47.554Z,25.50
2023-03-03T10:21:52.549Z,23.75
2023-03-03T10:22:56.108Z,25.25
2023-03-03T10:24:03.133Z,26.00
2023-03-03T10:25:13.512Z,30.75
2023-03-03T10:26:20.238Z,25.50
2023-03-03T10:27:29.645Z,27.50
2023-03-03T10:29:00.683Z,25.75
2023-03-03T10:30:06.868Z,26.50
2023-03-03T10:31:15.553Z,26.00
2023-03-03T10:32:38.139Z,26.25
2023-03-03T10:33:44.071Z,26.50
2023-03-03T10:34:54.273Z,24.00
2023-03-03T10:36:07.513Z,31.00
2023-03-03T10:37:11.284Z,25.50
2023-03-03T10:38:33.156Z,28.75
2023-03-03T10:39:49.189Z,25.75
2023-03-03T10:40:51.839Z,23.50
2023-03-03T10:42:04.606Z,24.50
2023-03-03T10:43:29.751Z,28.00
2023-03-03T10:44:45.390Z,26.50
2023-03-03T10:46:14.597Z,28.25
2023-03-03T10:47:34.097Z,23.75
2023-03-03T10:48:46.458Z,26.25
2023-03-03T10:49:55.810Z,23.50
2023-03-03T10:51:02.353Z,28.00
2023-03-03T10:52:23.316Z,22.50
2023-03-03T10:53:27.967Z,26.00
2023-03-03T10:54:39.499Z,25.75
2023-03-03T10:55:46.582Z,21.75
2023-03-03T10:56:53.193Z,22.25
2023-03-03T10:58:28.299Z,26.75
2023-03-03T10:59:46.975Z,22.00
2023-03-03T11:00:50.123Z,23.00
2023-03-03T11:01:54.214Z,19.25
2023-03-03T11:03:29.492Z,24.50
2023-03-03T11:05:02.175Z,24.00
2023-03-03T11:06:06.455Z,21.75
2023-03-03T11:07:10.940Z,21.00
2023-03-03T11:08:15.359Z,22.25
2023-03-03T11:09:27.969Z,22.00
2023-03-03T11:10:47.987Z,21.25
2023-03-03T11:11:55.441Z,24.50
2023-03-03T11:13:10.670Z,26.25
2023-03-03T11:14:14.184Z,24.50
2023-03-03T11:15:34.434Z,25.50
2023-03-03T11:16:51.737Z,23.50
2023-03-03T11:18:06.053Z,21.00
2023-03-03T11:19:33.822Z,23.25
2023-03-03T11:20:39.650Z,23.75
2023-03-03T11:21:44.469Z,20.25
2023-03-03T11:22:48.590Z,20.50
2023-03-03T11:24:02.609Z,25.00
2023-03-03T11:25:12.531Z,20.25
2023-03-03T11:26:17.221Z,24.50
2023-03-03T11:27:28.635Z,21.50
2023-03-03T11:28:37.655Z,23.50
2023-03-03T11:29:52.836Z,20.50
2023-03-03T11:31:03.102Z,20.25
2023-03-03T11:32:13.900Z,20.75
2023-03-03T11:33:19.911Z,22.50
2023-03-03T11:34:32.517Z,19.50
2023-03-03T11:35:42.106Z,23.75
2023-03-03T11:36:47.069Z,23.00
2023-03-03T11:37:55.499Z,21.50
2023-03-03T11:38:58.232Z,19.00
2023-03-03T11:40:03.685Z,18.50
2023-03-03T11:41:08.478Z,23.00
2023-03-03T11:42:17.053Z,21.50
2023-03-03T11:43:35.382Z,20.75
2023-03-03T11:44:39.631Z,22.00
2023-03-03T11:45:42.882Z,22.00
2023-03-03T11:46:47.382Z,22.00
2023-03-03T11:47:53.639Z,20.00
2023-03-03T11:48:59.497Z,20.50
2023-03-03T11:50:03.461Z,21.75
2023-03-03T11:51:06.456Z,23.50
2023-03-03T11:52:17.490Z,21.00
2023-03-03T11:53:29.858Z,21.50
2023-03-03T11:54:34.047Z,23.00
2023-03-03T11:55:36.967Z,21.50
2023-03-03T11:56:41.573Z,19.50
2023-03-03T11:57:45.509Z,19.00
2023-03-03T11:58:49.077Z,21.00
2023-03-03T12:00:12.838Z,19.75
2023-03-03T12:01:18.302Z,21.50
2023-03-03T12:02:43.891Z,21.25
2023-03-03T12:03:47.691Z,20.25
2023-03-03T12:04:52.090Z,19.75
2023-03-03T12:05:57.541Z,20.25
2023-03-03T12:07:19.012Z,21.50
2023-03-03T12:08:31.640Z,20.00
2023-03-03T12:09:39.132Z,19.50
2023-03-03T12:10:43.255Z,19.50
2023-03-03T12:11:51.650Z,18.50
2023-03-03T12:12:59.742Z,19.00
2023-03-03T12:14:03.860Z,21.50
2023-03-03T12:15:12.132Z,21.00
2023-03-03T12:16:17.190Z,21.00
2023-03-03T12:17:27.180Z,21.25
2023-03-03T12:18:51.144Z,18.50
2023-03-03T12:19:55.307Z,20.25
2023-03-03T12:21:04.316Z,22.00
2023-03-03T12:22:12.110Z,26.25
2023-03-03T12:23:22.367Z,16.25
2023-03-03T12:24:31.177Z,18.75
2023-03-03T12:25:36.495Z,20.00
2023-03-03T12:26:43.282Z,16.00
2023-03-03T12:27:49.913Z,18.50
2023-03-03T12:28:54.813Z,19.00
2023-03-03T12:30:05.117Z,19.00
2023-03-03T12:31:14.952Z,21.75
2023-03-03T12:32:22.484Z,18.75
2023-03-03T12:33:29.883Z,18.25
2023-03-03T12:34:35.235Z,19.75
2023-03-03T12:35:41.399Z,16.00
2023-03-03T12:36:50.804Z,20.00
2023-03-03T12:37:55.951Z,18.25
2023-03-03T12:39:00.680Z,21.50
2023-03-03T12:40:08.056Z,20.00
2023-03-03T12:41:14.917Z,24.00
2023-03-03T12:42:25.884Z,23.75
2023-03-03T12:43:42.293Z,30.00
2023-03-03T12:44:46.889Z,31.25
2023-03-03T12:45:56.402Z,18.50
2023-03-03T12:47:01.939Z,17.75
2023-03-03T12:48:08.473Z,19.75
2023-03-03T12:49:11.192Z,19.00
2023-03-03T12:50:26.118Z,17.25
2023-03-03T12:51:38.069Z,17.00
2023-03-03T12:52:45.494Z,17.00
2023-03-03T12:54:01.334Z,16.25
2023-03-03T12:55:06.134Z,14.00
2023-03-03T12:56:09.578Z,14.50
2023-03-03T12:57:16.585Z,16.50
2023-03-03T12:58:26.571Z,19.00
2023-03-03T12:59:33.369Z,19.75
2023-03-03T13:00:42.969Z,17.50
2023-03-03T13:01:53.241Z,20.00
2023-03-03T13:03:00.494Z,20.25
2023-03-03T13:04:06.339Z,23.75
2023-03-03T13:05:16.351Z,17.25
2023-03-03T13:06:23.422Z,17.75
2023-03-03T13:07:27.941Z,15.00
2023-03-03T13:08:35.117Z,14.50
2023-03-03T13:09:44.380Z,15.00
2023-03-03T13:10:46.945Z,15.50
2023-03-03T13:11:56.800Z,15.00
2023-03-03T13:12:59.657Z,15.75
2023-03-03T13:14:05.398Z,20.00
2023-03-03T13:15:15.956Z,14.75
2023-03-03T13:16:31.986Z,16.50
2023-03-03T13:17:44.109Z,15.50
2023-03-03T13:18:50.532Z,17.00
2023-03-03T13:19:56.105Z,17.00
2023-03-03T13:21:01.074Z,15.50
2023-03-03T13:22:08.670Z,15.00
2023-03-03T13:23:15.326Z,15.00
2023-03-03T13:24:20.540Z,13.00
2023-03-03T13:25:47.330Z,17.25
2023-03-03T13:26:50.962Z,14.25
2023-03-03T13:27:54.717Z,14.00
2023-03-03T13:29:03.546Z,13.00
2023-03-03T13:30:15.779Z,13.00
2023-03-03T13:31:19.981Z,16.50
2023-03-03T13:32:24.541Z,15.50
2023-03-03T13:33:27.359Z,16.00
2023-03-03T13:34:37.761Z,17.50
2023-03-03T13:35:42.014Z,17.25
2023-03-03T13:36:50.911Z,15.50
2023-03-03T13:37:54.051Z,17.00
2023-03-03T13:38:59.947Z,16.50
2023-03-03T13:40:03.709Z,15.75
2023-03-03T13:41:09.084Z,14.25
2023-03-03T13:42:15.904Z,14.00
2023-03-03T13:43:19.058Z,17.25
2023-03-03T13:44:24.138Z,13.75
2023-03-03T13:45:28.477Z,15.25
2023-03-03T13:46:37.208Z,13.00
2023-03-03T13:47:41.048Z,14.50
2023-03-03T13:48:49.782Z,13.00
2023-03-03T13:50:01.144Z,14.00
2023-03-03T13:51:04.188Z,14.00
2023-03-03T13:52:07.528Z,13.00
2023-03-03T13:53:27.039Z,13.25
2023-03-03T13:54:57.517Z,15.00
2023-03-03T13:56:03.642Z,14.25
2023-03-03T13:57:12.672Z,13.75
2023-03-03T13:58:20.198Z,12.00
2023-03-03T13:59:24.945Z,17.50
2023-03-03T14:00:37.548Z,17.00
2023-03-03T14:01:48.310Z,16.00
2023-03-03T14:03:28.371Z,13.50
2023-03-03T14:04:33.579Z,14.00
2023-03-03T14:05:37.194Z,14.00